createdAt,value
2022-10-29T00:02:02.294Z,99383.34
2022-10-29T00:07:09.973Z,99378.28
2022-10-29T00:12:15.042Z,99392.56
2022-10-29T00:17:19.932Z,99398.50
2022-10-29T00:22:27.436Z,99392.31
2022-10-29T00:27:32.228Z,99408.44
2022-10-29T00:32:37.046Z,99407.94
2022-10-29T00:37:44.508Z,99391.47
2022-10-29T00:42:49.333Z,99397.47
2022-10-29T00:47:56.032Z,99396.72
2022-10-29T00:53:06.903Z,99390.34
2022-10-29T00:58:13.393Z,99388.63
2022-10-29T01:03:18.233Z,99390.25
2022-10-29T01:08:26.055Z,99383.28
2022-10-29T01:13:50.241Z,99375.53
2022-10-29T01:19:04.424Z,99374.28
2022-10-29T01:24:45.270Z,99379.28
2022-10-29T01:30:06.646Z,99367.78
2022-10-29T01:35:20.557Z,99383.50
2022-10-29T01:40:29.535Z,99393.00
2022-10-29T01:45:39.732Z,99386.69
2022-10-29T01:50:52.775Z,99383.94
2022-10-29T01:55:57.512Z,99390.72
2022-10-29T02:01:13.195Z,99404.78
2022-10-29T02:06:35.224Z,99388.31
2022-10-29T02:11:49.851Z,99385.22
2022-10-29T02:16:56.439Z,99379.66
2022-10-29T02:22:03.783Z,99383.47
2022-10-29T02:27:08.659Z,99381.31
2022-10-29T02:32:13.511Z,99367.28
2022-10-29T02:37:21.017Z,99373.63
2022-10-29T02:42:25.957Z,99363.81
2022-10-29T02:47:30.995Z,99359.63
2022-10-29T02:52:38.463Z,99372.38
2022-10-29T02:57:46.105Z,99377.31
2022-10-29T03:02:54.244Z,99382.66
2022-10-29T03:08:01.949Z,99378.22
2022-10-29T03:13:06.754Z,99385.97
2022-10-29T03:18:11.738Z,99384.63
2022-10-29T03:23:19.064Z,99398.28
2022-10-29T03:28:24.652Z,99396.28
2022-10-29T03:33:29.662Z,99405.97
2022-10-29T03:38:37.509Z,99402.94
2022-10-29T03:43:42.671Z,99403.22
2022-10-29T03:48:47.625Z,99414.41
2022-10-29T03:53:55.074Z,99413.84
2022-10-29T03:59:00.158Z,99423.63
2022-10-29T04:04:04.971Z,99428.91
2022-10-29T04:09:19.773Z,99426.22
2022-10-29T04:14:25.045Z,99412.78
2022-10-29T04:19:32.141Z,99430.84
2022-10-29T04:30:10.275Z,99442.63
2022-10-29T04:35:15.241Z,99450.84
2022-10-29T04:40:26.186Z,99445.00
2022-10-29T04:45:33.541Z,99434.63
2022-10-29T04:50:40.987Z,99442.72
2022-10-29T04:55:49.083Z,99438.56
2022-10-29T05:00:53.870Z,99431.16
2022-10-29T05:05:58.649Z,99430.75
2022-10-29T05:11:08.906Z,99436.56
2022-10-29T05:16:13.717Z,99444.47
2022-10-29T05:21:18.587Z,99447.72
2022-10-29T05:26:26.769Z,99445.28
2022-10-29T05:31:33.091Z,99439.66
2022-10-29T05:36:37.907Z,99457.94
2022-10-29T05:41:45.459Z,99465.94
2022-10-29T05:46:52.329Z,99458.84
2022-10-29T05:51:57.479Z,99452.72
2022-10-29T05:57:05.237Z,99467.69
2022-10-29T06:02:11.937Z,99466.97
2022-10-29T06:07:16.856Z,99469.94
2022-10-29T06:12:24.237Z,99457.72
2022-10-29T06:17:29.736Z,99464.41
2022-10-29T06:22:34.653Z,99459.03
2022-10-29T06:27:46.803Z,99471.63
2022-10-29T06:32:51.813Z,99475.06
2022-10-29T06:37:59.468Z,99471.63
2022-10-29T06:43:09.783Z,99478.69
2022-10-29T06:48:20.643Z,99494.31
2022-10-29T06:53:27.300Z,99487.66
2022-10-29T06:58:35.643Z,99481.69
2022-10-29T07:03:40.636Z,99484.25
2022-10-29T07:08:45.946Z,99478.91
2022-10-29T07:13:55.598Z,99477.94
2022-10-29T07:19:00.860Z,99487.66
2022-10-29T07:24:05.923Z,99471.81
2022-10-29T07:29:13.402Z,99483.09
2022-10-29T07:34:18.400Z,99493.13
2022-10-29T07:39:23.638Z,99488.16
2022-10-29T07:44:31.169Z,99498.38
2022-10-29T07:49:36.215Z,99497.44
2022-10-29T07:54:41.233Z,99486.13
2022-10-29T07:59:50.368Z,99484.44
2022-10-29T08:04:55.380Z,99485.41
2022-10-29T08:10:00.211Z,99479.22
2022-10-29T08:15:12.033Z,99487.19
2022-10-29T08:20:17.747Z,99486.41
2022-10-29T08:25:23.215Z,99482.63
2022-10-29T08:30:31.089Z,99470.78
2022-10-29T08:35:38.966Z,99473.59
2022-10-29T08:41:00.543Z,99464.53
2022-10-29T08:46:18.196Z,99456.63
2022-10-29T08:51:28.839Z,99449.44
2022-10-29T08:56:42.378Z,99435.81
2022-10-29T09:01:51.948Z,99446.81
2022-10-29T09:07:22.854Z,99438.88
2022-10-29T09:12:50.679Z,99437.41
2022-10-29T09:18:14.411Z,99436.53
2022-10-29T09:23:31.685Z,99442.78
2022-10-29T09:28:46.964Z,99440.31
2022-10-29T09:33:59.333Z,99445.28
2022-10-29T09:39:15.772Z,99433.84
2022-10-29T09:44:25.916Z,99428.88
2022-10-29T09:49:48.539Z,99439.78
2022-10-29T09:54:55.858Z,99439.56
2022-10-29T10:00:04.565Z,99448.50
2022-10-29T10:05:26.982Z,99443.56
2022-10-29T10:10:32.144Z,99441.47
2022-10-29T10:15:38.775Z,99456.84
2022-10-29T10:20:51.052Z,99438.31
2022-10-29T10:26:00.502Z,99422.97
2022-10-29T10:31:17.073Z,99423.44
2022-10-29T10:36:27.553Z,99410.00
2022-10-29T10:41:36.992Z,99406.63
2022-10-29T10:46:45.399Z,99402.84
2022-10-29T10:51:56.593Z,99402.53
2022-10-29T10:57:03.799Z,99397.91
2022-10-29T11:02:17.041Z,99397.38
2022-10-29T11:07:30.238Z,99393.50
2022-10-29T11:12:39.954Z,99398.66
2022-10-29T11:17:54.119Z,99398.75
2022-10-29T11:23:17.350Z,99395.44
2022-10-29T11:28:29.289Z,99389.97
2022-10-29T11:33:44.930Z,99377.16
2022-10-29T11:38:56.929Z,99363.53
2022-10-29T11:44:01.918Z,99359.94
2022-10-29T11:49:20.368Z,99346.09
2022-10-29T11:54:40.606Z,99338.69
2022-10-29T12:00:05.605Z,99338.81
2022-10-29T12:05:36.429Z,99341.50
2022-10-29T12:10:53.573Z,99332.53
2022-10-29T12:16:17.018Z,99318.38
2022-10-29T12:21:31.350Z,99301.56
2022-10-29T12:26:46.228Z,99297.25
2022-10-29T12:31:59.832Z,99303.31
2022-10-29T12:37:14.174Z,99296.06
2022-10-29T12:42:27.344Z,99313.75
2022-10-29T12:47:38.167Z,99297.53
2022-10-29T12:52:49.311Z,99289.91
2022-10-29T12:57:57.423Z,99288.38
2022-10-29T13:03:02.892Z,99280.16
2022-10-29T13:08:28.000Z,99281.22
2022-10-29T13:14:01.818Z,99273.50
2022-10-29T13:19:21.669Z,99279.69
2022-10-29T13:24:27.677Z,99271.16
2022-10-29T13:30:15.626Z,99261.91
2022-10-29T13:35:44.843Z,99256.84
2022-10-29T13:41:18.265Z,99261.69
2022-10-29T13:46:42.542Z,99262.94
2022-10-29T13:52:00.550Z,99262.03
2022-10-29T13:57:13.072Z,99264.31
2022-10-29T14:02:33.415Z,99271.78
2022-10-29T14:07:44.738Z,99265.22
2022-10-29T14:12:52.353Z,99270.75
2022-10-29T14:17:59.837Z,99266.97
2022-10-29T14:23:12.019Z,99257.66
2022-10-29T14:28:26.482Z,99276.88
2022-10-29T14:33:36.775Z,99270.25
2022-10-29T14:38:45.990Z,99274.66
2022-10-29T14:43:55.727Z,99276.50
2022-10-29T14:49:18.017Z,99284.25
2022-10-29T14:54:30.386Z,99273.69
2022-10-29T14:59:37.003Z,99261.25
2022-10-29T15:04:53.257Z,99264.81
2022-10-29T15:10:18.932Z,99266.97
2022-10-29T15:15:33.380Z,99272.53
2022-10-29T15:20:49.086Z,99278.53
2022-10-29T15:25:56.395Z,99277.19
2022-10-29T15:31:04.717Z,99267.38
2022-10-29T15:36:12.619Z,99274.19
2022-10-29T15:41:37.742Z,99279.06
2022-10-29T15:46:53.455Z,99276.38
2022-10-29T15:52:02.967Z,99272.44
2022-10-29T15:57:08.329Z,99272.81
2022-10-29T16:02:15.314Z,99273.84
2022-10-29T16:07:23.060Z,99272.25
2022-10-29T16:12:28.722Z,99276.25
2022-10-29T16:17:33.765Z,99273.25
2022-10-29T16:22:41.176Z,99268.44
2022-10-29T16:27:48.424Z,99273.63
2022-10-29T16:32:54.212Z,99277.03
2022-10-29T16:38:01.801Z,99270.53
2022-10-29T16:43:06.826Z,99273.91
2022-10-29T16:48:11.668Z,99273.47
2022-10-29T16:53:20.444Z,99262.28
2022-10-29T16:58:29.662Z,99267.19
2022-10-29T17:03:35.811Z,99264.66
2022-10-29T17:08:43.315Z,99272.41
2022-10-29T17:13:48.498Z,99278.59
2022-10-29T17:18:53.439Z,99281.44
2022-10-29T17:24:06.716Z,99277.03
2022-10-29T17:29:13.215Z,99273.69
2022-10-29T17:34:18.178Z,99276.22
2022-10-29T17:39:25.893Z,99277.50
2022-10-29T17:44:32.166Z,99272.47
2022-10-29T17:49:37.089Z,99274.34
2022-10-29T17:54:44.741Z,99279.84
2022-10-29T17:59:49.586Z,99282.56
2022-10-29T18:04:54.763Z,99282.22
2022-10-29T18:10:02.192Z,99270.72
2022-10-29T18:15:07.669Z,99276.69
2022-10-29T18:20:13.580Z,99284.59
2022-10-29T18:25:21.320Z,99268.22
2022-10-29T18:30:29.925Z,99267.25
2022-10-29T18:35:34.847Z,99268.81
2022-10-29T18:40:42.521Z,99271.06
2022-10-29T18:45:47.573Z,99272.28
2022-10-29T18:50:53.214Z,99275.44
2022-10-29T18:56:00.687Z,99271.50
2022-10-29T19:01:11.014Z,99277.34
2022-10-29T19:06:16.222Z,99274.19
2022-10-29T19:11:25.961Z,99276.38
2022-10-29T19:16:32.707Z,99269.63
2022-10-29T19:21:39.672Z,99277.00
2022-10-29T19:26:47.520Z,99279.34
2022-10-29T19:31:52.328Z,99280.75
2022-10-29T19:36:57.168Z,99277.75
2022-10-29T19:42:04.944Z,99267.81
2022-10-29T19:47:15.682Z,99267.47
2022-10-29T19:52:21.510Z,99265.44
2022-10-29T19:57:28.859Z,99270.28
2022-10-29T20:02:34.061Z,99272.66
2022-10-29T20:07:38.871Z,99269.41
2022-10-29T20:12:46.285Z,99263.00
2022-10-29T20:17:51.088Z,99265.00
2022-10-29T20:22:56.203Z,99262.34
2022-10-29T20:28:07.125Z,99269.56
2022-10-29T20:33:11.989Z,99274.59
2022-10-29T20:38:17.002Z,99265.59
2022-10-29T20:43:24.494Z,99270.31
2022-10-29T20:48:29.373Z,99260.94
2022-10-29T20:53:34.185Z,99267.88
2022-10-29T20:58:42.718Z,99258.91
2022-10-29T21:03:48.185Z,99268.78
2022-10-29T21:08:54.357Z,99275.63
2022-10-29T21:14:02.080Z,99278.28
2022-10-29T21:19:08.946Z,99276.81
2022-10-29T21:24:13.824Z,99283.75
2022-10-29T21:29:21.373Z,99275.56
2022-10-29T21:34:26.421Z,99269.19
2022-10-29T21:39:33.180Z,99266.66
2022-10-29T21:44:40.601Z,99267.91
2022-10-29T21:49:51.714Z,99255.06
2022-10-29T21:54:56.943Z,99265.88
2022-10-29T22:00:04.365Z,99261.16
2022-10-29T22:05:10.562Z,99262.16
2022-10-29T22:10:15.706Z,99263.25
2022-10-29T22:15:25.357Z,99266.16
2022-10-29T22:20:30.083Z,99264.47
2022-10-29T22:25:34.845Z,99262.22
2022-10-29T22:30:42.185Z,99266.19
2022-10-29T22:35:46.922Z,99252.44
2022-10-29T22:40:51.872Z,99262.81
2022-10-29T22:45:59.545Z,99256.19
2022-10-29T22:51:07.189Z,99262.63
2022-10-29T22:56:15.540Z,99259.34
2022-10-29T23:01:25.276Z,99250.38
2022-10-29T23:06:31.258Z,99252.75
2022-10-29T23:11:39.460Z,99257.72
2022-10-29T23:16:47.198Z,99245.69
2022-10-29T23:21:52.123Z,99241.88
2022-10-29T23:26:57.026Z,99248.00
2022-10-29T23:32:04.355Z,99254.75
2022-10-29T23:37:10.155Z,99246.91
2022-10-29T23:42:15.225Z,99245.28
2022-10-29T23:47:22.620Z,99245.84
2022-10-29T23:52:27.477Z,99235.91
2022-10-29T23:57:32.326Z,99237.50
